sensor_id;sensor_type;location;lat;lon;timestamp;P1;durP1;ratioP1;P2;durP2;ratioP2
35795;SDS011;21916;52.428;13.302;2022-08-01T00:00:12;4.40;;;3.40;;
35795;SDS011;21916;52.428;13.302;2022-08-01T00:02:39;3.85;;;3.45;;
35795;SDS011;21916;52.428;13.302;2022-08-01T00:05:06;9.93;;;3.30;;
35795;SDS011;21916;52.428;13.302;2022-08-01T00:07:34;6.50;;;3.50;;
35795;SDS011;21916;52.428;13.302;2022-08-01T00:10:00;4.88;;;3.58;;
35795;SDS011;21916;52.428;13.302;2022-08-01T00:12:27;5.22;;;3.78;;
35795;SDS011;21916;52.428;13.302;2022-08-01T00:14:53;3.90;;;3.30;;
35795;SDS011;21916;52.428;13.302;2022-08-01T00:17:19;7.32;;;3.75;;
35795;SDS011;21916;52.428;13.302;2022-08-01T00:19:45;5.47;;;3.70;;
35795;SDS011;21916;52.428;13.302;2022-08-01T00:22:11;7.18;;;3.80;;
35795;SDS011;21916;52.428;13.302;2022-08-01T00:24:36;4.45;;;3.60;;
35795;SDS011;21916;52.428;13.302;2022-08-01T00:27:02;6.13;;;4.43;;
35795;SDS011;21916;52.428;13.302;2022-08-01T00:29:28;6.20;;;3.85;;
35795;SDS011;21916;52.428;13.302;2022-08-01T00:31:54;5.00;;;3.83;;
35795;SDS011;21916;52.428;13.302;2022-08-01T00:34:20;7.32;;;4.88;;
35795;SDS011;21916;52.428;13.302;2022-08-01T00:36:46;6.30;;;4.13;;
35795;SDS011;21916;52.428;13.302;2022-08-01T00:39:12;4.47;;;3.90;;
35795;SDS011;21916;52.428;13.302;2022-08-01T00:41:38;7.65;;;4.50;;
35795;SDS011;21916;52.428;13.302;2022-08-01T00:44:04;5.90;;;4.53;;
35795;SDS011;21916;52.428;13.302;2022-08-01T00:46:31;7.30;;;4.82;;
35795;SDS011;21916;52.428;13.302;2022-08-01T00:48:58;5.93;;;4.03;;
35795;SDS011;21916;52.428;13.302;2022-08-01T00:51:25;5.63;;;4.28;;
35795;SDS011;21916;52.428;13.302;2022-08-01T00:53:51;4.70;;;4.20;;
35795;SDS011;21916;52.428;13.302;2022-08-01T00:56:21;5.38;;;4.68;;
35795;SDS011;21916;52.428;13.302;2022-08-01T00:58:50;5.43;;;4.70;;
35795;SDS011;21916;52.428;13.302;2022-08-01T01:01:16;5.72;;;4.78;;
35795;SDS011;21916;52.428;13.302;2022-08-01T01:03:43;7.35;;;5.05;;
35795;SDS011;21916;52.428;13.302;2022-08-01T01:09:44;6.78;;;4.93;;
35795;SDS011;21916;52.428;13.302;2022-08-01T01:14:43;5.15;;;3.90;;
35795;SDS011;21916;52.428;13.302;2022-08-01T01:20:24;5.32;;;4.70;;
35795;SDS011;21916;52.428;13.302;2022-08-01T01:31:19;6.18;;;4.88;;
35795;SDS011;21916;52.428;13.302;2022-08-01T01:33:47;5.85;;;4.10;;
35795;SDS011;21916;52.428;13.302;2022-08-01T01:36:15;6.40;;;4.95;;
35795;SDS011;21916;52.428;13.302;2022-08-01T01:38:44;9.55;;;4.85;;
35795;SDS011;21916;52.428;13.302;2022-08-01T01:41:12;6.13;;;5.03;;
35795;SDS011;21916;52.428;13.302;2022-08-01T01:43:40;5.03;;;4.53;;
35795;SDS011;21916;52.428;13.302;2022-08-01T01:46:07;4.88;;;4.45;;
35795;SDS011;21916;52.428;13.302;2022-08-01T01:48:36;6.85;;;4.57;;
35795;SDS011;21916;52.428;13.302;2022-08-01T01:51:04;6.72;;;4.60;;
35795;SDS011;21916;52.428;13.302;2022-08-01T01:53:31;6.10;;;4.80;;
35795;SDS011;21916;52.428;13.302;2022-08-01T01:56:00;8.73;;;5.05;;
35795;SDS011;21916;52.428;13.302;2022-08-01T01:58:28;7.63;;;5.15;;
35795;SDS011;21916;52.428;13.302;2022-08-01T02:00:56;6.95;;;4.85;;
35795;SDS011;21916;52.428;13.302;2022-08-01T02:03:24;6.82;;;5.20;;
35795;SDS011;21916;52.428;13.302;2022-08-01T02:05:52;5.30;;;4.80;;
35795;SDS011;21916;52.428;13.302;2022-08-01T02:08:19;5.40;;;4.90;;
35795;SDS011;21916;52.428;13.302;2022-08-01T02:10:48;7.85;;;5.32;;
35795;SDS011;21916;52.428;13.302;2022-08-01T02:13:36;9.60;;;4.93;;
35795;SDS011;21916;52.428;13.302;2022-08-01T02:16:03;8.10;;;5.70;;
35795;SDS011;21916;52.428;13.302;2022-08-01T02:18:30;6.55;;;5.28;;
35795;SDS011;21916;52.428;13.302;2022-08-01T02:20:58;6.90;;;5.40;;
35795;SDS011;21916;52.428;13.302;2022-08-01T02:23:27;6.60;;;5.85;;
35795;SDS011;21916;52.428;13.302;2022-08-01T02:25:56;5.65;;;5.15;;
35795;SDS011;21916;52.428;13.302;2022-08-01T02:28:29;6.47;;;5.20;;
35795;SDS011;21916;52.428;13.302;2022-08-01T02:31:02;6.95;;;5.68;;
35795;SDS011;21916;52.428;13.302;2022-08-01T02:33:38;6.45;;;5.45;;
35795;SDS011;21916;52.428;13.302;2022-08-01T02:36:09;6.90;;;6.30;;
35795;SDS011;21916;52.428;13.302;2022-08-01T02:38:38;7.18;;;6.38;;
35795;SDS011;21916;52.428;13.302;2022-08-01T02:41:07;8.93;;;6.22;;
35795;SDS011;21916;52.428;13.302;2022-08-01T02:43:38;6.00;;;5.47;;
35795;SDS011;21916;52.428;13.302;2022-08-01T02:46:09;7.25;;;5.82;;
35795;SDS011;21916;52.428;13.302;2022-08-01T02:48:41;6.75;;;5.50;;
35795;SDS011;21916;52.428;13.302;2022-08-01T02:51:08;9.38;;;6.20;;
35795;SDS011;21916;52.428;13.302;2022-08-01T02:53:37;6.30;;;5.50;;
35795;SDS011;21916;52.428;13.302;2022-08-01T02:56:06;9.35;;;7.35;;
35795;SDS011;21916;52.428;13.302;2022-08-01T02:58:35;7.93;;;6.13;;
35795;SDS011;21916;52.428;13.302;2022-08-01T03:01:03;6.68;;;5.97;;
35795;SDS011;21916;52.428;13.302;2022-08-01T03:03:31;7.50;;;5.55;;
35795;SDS011;21916;52.428;13.302;2022-08-01T03:05:58;6.90;;;5.90;;
35795;SDS011;21916;52.428;13.302;2022-08-01T03:08:25;6.90;;;5.43;;
35795;SDS011;21916;52.428;13.302;2022-08-01T03:10:54;8.15;;;5.85;;
35795;SDS011;21916;52.428;13.302;2022-08-01T03:13:21;6.93;;;5.80;;
35795;SDS011;21916;52.428;13.302;2022-08-01T03:15:48;6.68;;;5.95;;
35795;SDS011;21916;52.428;13.302;2022-08-01T03:18:15;6.32;;;5.38;;
35795;SDS011;21916;52.428;13.302;2022-08-01T03:20:42;7.47;;;5.78;;
35795;SDS011;21916;52.428;13.302;2022-08-01T03:23:11;6.10;;;5.40;;
35795;SDS011;21916;52.428;13.302;2022-08-01T03:25:39;5.80;;;5.30;;
35795;SDS011;21916;52.428;13.302;2022-08-01T03:28:06;6.53;;;5.90;;
35795;SDS011;21916;52.428;13.302;2022-08-01T03:30:33;6.53;;;5.68;;
35795;SDS011;21916;52.428;13.302;2022-08-01T03:33:02;7.25;;;5.53;;
35795;SDS011;21916;52.428;13.302;2022-08-01T03:35:33;6.03;;;5.50;;
35795;SDS011;21916;52.428;13.302;2022-08-01T03:38:03;7.32;;;5.22;;
35795;SDS011;21916;52.428;13.302;2022-08-01T03:40:38;5.78;;;5.25;;
35795;SDS011;21916;52.428;13.302;2022-08-01T03:43:26;6.70;;;5.07;;
35795;SDS011;21916;52.428;13.302;2022-08-01T03:46:01;6.95;;;5.10;;
35795;SDS011;21916;52.428;13.302;2022-08-01T03:48:33;9.77;;;5.55;;
35795;SDS011;21916;52.428;13.302;2022-08-01T03:51:04;7.25;;;5.30;;
35795;SDS011;21916;52.428;13.302;2022-08-01T03:53:32;6.60;;;5.55;;
35795;SDS011;21916;52.428;13.302;2022-08-01T03:56:00;7.35;;;5.78;;
35795;SDS011;21916;52.428;13.302;2022-08-01T03:58:30;7.05;;;5.40;;
35795;SDS011;21916;52.428;13.302;2022-08-01T04:00:57;6.43;;;5.80;;
35795;SDS011;21916;52.428;13.302;2022-08-01T04:03:24;6.80;;;5.75;;
35795;SDS011;21916;52.428;13.302;2022-08-01T04:05:50;6.30;;;5.68;;
35795;SDS011;21916;52.428;13.302;2022-08-01T04:08:16;8.63;;;6.72;;
35795;SDS011;21916;52.428;13.302;2022-08-01T04:10:42;8.88;;;5.95;;
35795;SDS011;21916;52.428;13.302;2022-08-01T04:13:08;11.48;;;7.18;;
35795;SDS011;21916;52.428;13.302;2022-08-01T04:15:33;8.48;;;6.55;;
35795;SDS011;21916;52.428;13.302;2022-08-01T04:17:59;9.23;;;6.97;;
35795;SDS011;21916;52.428;13.302;2022-08-01T04:20:25;10.13;;;6.85;;
35795;SDS011;21916;52.428;13.302;2022-08-01T04:22:51;8.52;;;7.00;;
35795;SDS011;21916;52.428;13.302;2022-08-01T04:25:19;8.98;;;6.25;;
35795;SDS011;21916;52.428;13.302;2022-08-01T04:27:49;8.35;;;6.65;;
35795;SDS011;21916;52.428;13.302;2022-08-01T04:30:17;8.45;;;7.55;;
35795;SDS011;21916;52.428;13.302;2022-08-01T04:35:18;8.32;;;6.18;;
35795;SDS011;21916;52.428;13.302;2022-08-01T04:37:45;7.78;;;6.63;;
35795;SDS011;21916;52.428;13.302;2022-08-01T04:40:13;8.82;;;7.65;;
35795;SDS011;21916;52.428;13.302;2022-08-01T04:42:41;10.75;;;7.72;;
35795;SDS011;21916;52.428;13.302;2022-08-01T04:45:07;7.68;;;6.95;;
35795;SDS011;21916;52.428;13.302;2022-08-01T04:47:35;9.32;;;7.35;;
35795;SDS011;21916;52.428;13.302;2022-08-01T04:50:05;24.40;;;8.65;;
35795;SDS011;21916;52.428;13.302;2022-08-01T04:52:33;8.13;;;7.32;;
35795;SDS011;21916;52.428;13.302;2022-08-01T04:55:05;8.80;;;7.30;;
35795;SDS011;21916;52.428;13.302;2022-08-01T04:57:33;9.27;;;8.15;;
35795;SDS011;21916;52.428;13.302;2022-08-01T05:00:02;8.57;;;7.65;;
35795;SDS011;21916;52.428;13.302;2022-08-01T05:02:29;7.30;;;6.50;;
35795;SDS011;21916;52.428;13.302;2022-08-01T05:04:55;8.60;;;7.65;;
35795;SDS011;21916;52.428;13.302;2022-08-01T05:07:21;7.82;;;6.57;;
35795;SDS011;21916;52.428;13.302;2022-08-01T05:09:47;8.90;;;7.55;;
35795;SDS011;21916;52.428;13.302;2022-08-01T05:12:13;10.70;;;8.60;;
35795;SDS011;21916;52.428;13.302;2022-08-01T05:14:39;11.10;;;8.52;;
35795;SDS011;21916;52.428;13.302;2022-08-01T05:17:06;11.57;;;9.43;;
35795;SDS011;21916;52.428;13.302;2022-08-01T05:19:33;7.88;;;7.07;;
35795;SDS011;21916;52.428;13.302;2022-08-01T05:22:01;8.48;;;7.43;;
35795;SDS011;21916;52.428;13.302;2022-08-01T05:24:37;8.93;;;7.07;;
35795;SDS011;21916;52.428;13.302;2022-08-01T05:27:04;10.50;;;7.75;;
35795;SDS011;21916;52.428;13.302;2022-08-01T05:29:33;8.85;;;7.10;;
35795;SDS011;21916;52.428;13.302;2022-08-01T05:31:59;7.78;;;6.93;;
35795;SDS011;21916;52.428;13.302;2022-08-01T05:34:26;7.60;;;6.70;;
35795;SDS011;21916;52.428;13.302;2022-08-01T05:36:52;7.93;;;7.00;;
35795;SDS011;21916;52.428;13.302;2022-08-01T05:39:18;7.05;;;6.35;;
35795;SDS011;21916;52.428;13.302;2022-08-01T05:41:44;7.20;;;5.97;;
35795;SDS011;21916;52.428;13.302;2022-08-01T05:44:10;6.28;;;5.65;;
35795;SDS011;21916;52.428;13.302;2022-08-01T05:46:36;7.53;;;6.28;;
35795;SDS011;21916;52.428;13.302;2022-08-01T05:49:02;6.85;;;6.10;;
35795;SDS011;21916;52.428;13.302;2022-08-01T05:51:29;7.80;;;5.88;;
35795;SDS011;21916;52.428;13.302;2022-08-01T05:53:56;6.88;;;5.90;;
35795;SDS011;21916;52.428;13.302;2022-08-01T05:56:22;6.53;;;5.40;;
35795;SDS011;21916;52.428;13.302;2022-08-01T05:58:49;6.65;;;5.95;;
35795;SDS011;21916;52.428;13.302;2022-08-01T06:01:16;7.63;;;5.90;;
35795;SDS011;21916;52.428;13.302;2022-08-01T06:03:43;7.90;;;5.50;;
35795;SDS011;21916;52.428;13.302;2022-08-01T06:06:09;7.22;;;6.35;;
35795;SDS011;21916;52.428;13.302;2022-08-01T06:08:35;6.97;;;5.93;;
35795;SDS011;21916;52.428;13.302;2022-08-01T06:11:01;7.65;;;5.65;;
35795;SDS011;21916;52.428;13.302;2022-08-01T06:13:27;8.98;;;6.80;;
35795;SDS011;21916;52.428;13.302;2022-08-01T06:15:53;7.45;;;6.25;;
35795;SDS011;21916;52.428;13.302;2022-08-01T06:18:19;7.93;;;5.15;;
35795;SDS011;21916;52.428;13.302;2022-08-01T06:20:45;6.40;;;5.68;;
35795;SDS011;21916;52.428;13.302;2022-08-01T06:23:12;6.10;;;4.57;;
35795;SDS011;21916;52.428;13.302;2022-08-01T06:25:38;6.93;;;5.45;;
35795;SDS011;21916;52.428;13.302;2022-08-01T06:28:04;7.05;;;6.00;;
35795;SDS011;21916;52.428;13.302;2022-08-01T06:30:30;5.68;;;5.07;;
35795;SDS011;21916;52.428;13.302;2022-08-01T06:32:56;6.40;;;3.80;;
35795;SDS011;21916;52.428;13.302;2022-08-01T06:35:23;7.15;;;5.13;;
35795;SDS011;21916;52.428;13.302;2022-08-01T06:37:49;4.65;;;4.25;;
35795;SDS011;21916;52.428;13.302;2022-08-01T06:40:15;5.15;;;4.32;;
35795;SDS011;21916;52.428;13.302;2022-08-01T06:42:41;3.80;;;3.45;;
35795;SDS011;21916;52.428;13.302;2022-08-01T06:45:08;4.20;;;3.75;;
35795;SDS011;21916;52.428;13.302;2022-08-01T06:47:36;5.78;;;4.25;;
35795;SDS011;21916;52.428;13.302;2022-08-01T06:50:03;5.47;;;4.55;;
35795;SDS011;21916;52.428;13.302;2022-08-01T06:52:30;6.10;;;4.07;;
35795;SDS011;21916;52.428;13.302;2022-08-01T06:54:55;4.60;;;4.20;;
35795;SDS011;21916;52.428;13.302;2022-08-01T06:57:21;3.97;;;3.67;;
35795;SDS011;21916;52.428;13.302;2022-08-01T06:59:47;4.40;;;4.00;;
35795;SDS011;21916;52.428;13.302;2022-08-01T07:02:13;5.03;;;3.97;;
35795;SDS011;21916;52.428;13.302;2022-08-01T07:04:39;4.45;;;4.05;;
35795;SDS011;21916;52.428;13.302;2022-08-01T07:07:05;4.82;;;4.32;;
35795;SDS011;21916;52.428;13.302;2022-08-01T07:09:31;7.95;;;4.50;;
35795;SDS011;21916;52.428;13.302;2022-08-01T07:11:57;4.45;;;3.90;;
35795;SDS011;21916;52.428;13.302;2022-08-01T07:14:23;4.97;;;4.32;;
35795;SDS011;21916;52.428;13.302;2022-08-01T07:16:49;5.25;;;3.90;;
35795;SDS011;21916;52.428;13.302;2022-08-01T07:19:16;3.35;;;3.05;;
35795;SDS011;21916;52.428;13.302;2022-08-01T07:21:42;3.70;;;3.40;;
35795;SDS011;21916;52.428;13.302;2022-08-01T07:24:09;4.80;;;2.90;;
35795;SDS011;21916;52.428;13.302;2022-08-01T07:26:36;3.35;;;3.05;;
35795;SDS011;21916;52.428;13.302;2022-08-01T07:29:02;3.63;;;3.25;;
35795;SDS011;21916;52.428;13.302;2022-08-01T07:31:28;3.85;;;3.45;;
35795;SDS011;21916;52.428;13.302;2022-08-01T07:33:54;5.68;;;3.63;;
35795;SDS011;21916;52.428;13.302;2022-08-01T07:36:20;3.38;;;3.05;;
35795;SDS011;21916;52.428;13.302;2022-08-01T07:38:46;3.85;;;3.55;;
35795;SDS011;21916;52.428;13.302;2022-08-01T07:41:12;4.15;;;3.30;;
35795;SDS011;21916;52.428;13.302;2022-08-01T07:43:39;3.95;;;3.35;;
35795;SDS011;21916;52.428;13.302;2022-08-01T07:46:05;7.18;;;4.57;;
35795;SDS011;21916;52.428;13.302;2022-08-01T07:48:32;4.20;;;3.80;;
35795;SDS011;21916;52.428;13.302;2022-08-01T07:50:58;4.53;;;3.63;;
35795;SDS011;21916;52.428;13.302;2022-08-01T07:53:24;4.70;;;3.90;;
35795;SDS011;21916;52.428;13.302;2022-08-01T07:55:50;4.22;;;3.65;;
35795;SDS011;21916;52.428;13.302;2022-08-01T07:58:16;4.63;;;3.92;;
35795;SDS011;21916;52.428;13.302;2022-08-01T08:00:42;5.15;;;4.53;;
35795;SDS011;21916;52.428;13.302;2022-08-01T08:03:08;5.07;;;4.57;;
35795;SDS011;21916;52.428;13.302;2022-08-01T08:05:35;6.07;;;4.50;;
35795;SDS011;21916;52.428;13.302;2022-08-01T08:08:02;5.80;;;5.25;;
35795;SDS011;21916;52.428;13.302;2022-08-01T08:10:31;5.88;;;5.35;;
35795;SDS011;21916;52.428;13.302;2022-08-01T08:12:57;6.45;;;5.28;;
35795;SDS011;21916;52.428;13.302;2022-08-01T08:15:23;6.30;;;5.70;;
35795;SDS011;21916;52.428;13.302;2022-08-01T08:17:48;7.70;;;6.50;;
35795;SDS011;21916;52.428;13.302;2022-08-01T08:20:14;8.05;;;6.43;;
35795;SDS011;21916;52.428;13.302;2022-08-01T08:22:41;6.40;;;5.78;;
35795;SDS011;21916;52.428;13.302;2022-08-01T08:25:07;7.57;;;5.70;;
35795;SDS011;21916;52.428;13.302;2022-08-01T08:27:34;8.07;;;4.95;;
35795;SDS011;21916;52.428;13.302;2022-08-01T08:30:00;5.47;;;4.32;;
35795;SDS011;21916;52.428;13.302;2022-08-01T08:32:27;4.53;;;4.13;;
35795;SDS011;21916;52.428;13.302;2022-08-01T08:34:53;3.72;;;3.28;;
35795;SDS011;21916;52.428;13.302;2022-08-01T08:37:19;3.03;;;2.72;;
35795;SDS011;21916;52.428;13.302;2022-08-01T08:39:44;3.15;;;2.20;;
35795;SDS011;21916;52.428;13.302;2022-08-01T08:42:11;2.55;;;2.28;;
35795;SDS011;21916;52.428;13.302;2022-08-01T08:44:37;2.40;;;2.20;;
35795;SDS011;21916;52.428;13.302;2022-08-01T08:47:05;2.38;;;2.17;;
35795;SDS011;21916;52.428;13.302;2022-08-01T08:49:33;2.00;;;1.80;;
35795;SDS011;21916;52.428;13.302;2022-08-01T08:52:00;2.13;;;1.90;;
35795;SDS011;21916;52.428;13.302;2022-08-01T08:54:28;2.33;;;1.38;;
35795;SDS011;21916;52.428;13.302;2022-08-01T08:56:55;1.98;;;1.60;;
35795;SDS011;21916;52.428;13.302;2022-08-01T08:59:21;3.60;;;1.77;;
35795;SDS011;21916;52.428;13.302;2022-08-01T09:01:50;1.85;;;1.30;;
35795;SDS011;21916;52.428;13.302;2022-08-01T09:04:16;1.42;;;1.33;;
35795;SDS011;21916;52.428;13.302;2022-08-01T09:06:43;1.25;;;1.10;;
35795;SDS011;21916;52.428;13.302;2022-08-01T09:09:09;2.58;;;1.30;;
35795;SDS011;21916;52.428;13.302;2022-08-01T09:11:35;1.60;;;1.50;;
35795;SDS011;21916;52.428;13.302;2022-08-01T09:16:33;3.28;;;1.48;;
35795;SDS011;21916;52.428;13.302;2022-08-01T09:19:20;1.73;;;1.60;;
35795;SDS011;21916;52.428;13.302;2022-08-01T09:21:59;2.17;;;1.70;;
35795;SDS011;21916;52.428;13.302;2022-08-01T09:24:29;2.40;;;1.67;;
35795;SDS011;21916;52.428;13.302;2022-08-01T09:26:56;2.38;;;2.00;;
35795;SDS011;21916;52.428;13.302;2022-08-01T09:29:28;3.78;;;1.65;;
35795;SDS011;21916;52.428;13.302;2022-08-01T09:31:55;1.77;;;1.50;;
35795;SDS011;21916;52.428;13.302;2022-08-01T09:34:25;1.45;;;1.25;;
35795;SDS011;21916;52.428;13.302;2022-08-01T09:36:58;1.67;;;1.30;;
35795;SDS011;21916;52.428;13.302;2022-08-01T09:39:30;1.77;;;1.40;;
35795;SDS011;21916;52.428;13.302;2022-08-01T09:42:24;1.80;;;1.55;;
35795;SDS011;21916;52.428;13.302;2022-08-01T09:44:51;1.58;;;1.30;;
35795;SDS011;21916;52.428;13.302;2022-08-01T09:47:18;1.60;;;1.30;;
35795;SDS011;21916;52.428;13.302;2022-08-01T09:49:52;2.55;;;1.50;;
35795;SDS011;21916;52.428;13.302;2022-08-01T09:52:21;1.58;;;1.42;;
35795;SDS011;21916;52.428;13.302;2022-08-01T09:54:52;1.90;;;1.17;;
35795;SDS011;21916;52.428;13.302;2022-08-01T09:57:23;4.60;;;1.40;;
35795;SDS011;21916;52.428;13.302;2022-08-01T09:59:51;5.10;;;1.40;;
35795;SDS011;21916;52.428;13.302;2022-08-01T10:04:56;1.30;;;1.02;;
35795;SDS011;21916;52.428;13.302;2022-08-01T10:07:22;2.85;;;1.52;;
35795;SDS011;21916;52.428;13.302;2022-08-01T10:09:48;1.23;;;1.13;;
35795;SDS011;21916;52.428;13.302;2022-08-01T10:12:15;1.98;;;1.63;;
35795;SDS011;21916;52.428;13.302;2022-08-01T10:14:45;2.88;;;1.40;;
35795;SDS011;21916;52.428;13.302;2022-08-01T10:17:15;1.83;;;1.33;;
35795;SDS011;21916;52.428;13.302;2022-08-01T10:19:43;3.95;;;1.40;;
35795;SDS011;21916;52.428;13.302;2022-08-01T10:22:14;1.88;;;1.00;;
35795;SDS011;21916;52.428;13.302;2022-08-01T10:24:43;1.75;;;1.20;;
35795;SDS011;21916;52.428;13.302;2022-08-01T10:27:11;0.90;;;0.90;;
35795;SDS011;21916;52.428;13.302;2022-08-01T10:29:46;1.92;;;1.50;;
35795;SDS011;21916;52.428;13.302;2022-08-01T10:32:12;1.30;;;1.20;;
35795;SDS011;21916;52.428;13.302;2022-08-01T10:34:39;1.88;;;1.10;;
35795;SDS011;21916;52.428;13.302;2022-08-01T10:37:05;1.48;;;1.23;;
35795;SDS011;21916;52.428;13.302;2022-08-01T10:39:33;1.73;;;1.35;;
35795;SDS011;21916;52.428;13.302;2022-08-01T10:41:59;2.75;;;1.23;;
35795;SDS011;21916;52.428;13.302;2022-08-01T10:44:27;1.55;;;1.20;;
35795;SDS011;21916;52.428;13.302;2022-08-01T10:47:17;1.40;;;1.17;;
35795;SDS011;21916;52.428;13.302;2022-08-01T10:49:53;3.35;;;1.10;;
35795;SDS011;21916;52.428;13.302;2022-08-01T10:52:26;1.17;;;1.00;;
35795;SDS011;21916;52.428;13.302;2022-08-01T10:55:05;1.23;;;1.10;;
35795;SDS011;21916;52.428;13.302;2022-08-01T10:57:47;1.88;;;1.10;;
35795;SDS011;21916;52.428;13.302;2022-08-01T11:00:17;1.67;;;1.40;;
35795;SDS011;21916;52.428;13.302;2022-08-01T11:02:56;4.15;;;1.48;;
35795;SDS011;21916;52.428;13.302;2022-08-01T11:05:25;2.85;;;1.23;;
35795;SDS011;21916;52.428;13.302;2022-08-01T11:07:53;2.95;;;1.20;;
35795;SDS011;21916;52.428;13.302;2022-08-01T11:10:39;1.38;;;1.20;;
35795;SDS011;21916;52.428;13.302;2022-08-01T11:13:09;6.63;;;1.17;;
35795;SDS011;21916;52.428;13.302;2022-08-01T11:15:37;2.88;;;1.00;;
35795;SDS011;21916;52.428;13.302;2022-08-01T11:18:28;3.50;;;1.48;;
35795;SDS011;21916;52.428;13.302;2022-08-01T11:21:02;1.02;;;0.85;;
35795;SDS011;21916;52.428;13.302;2022-08-01T11:23:28;1.05;;;0.82;;
35795;SDS011;21916;52.428;13.302;2022-08-01T11:28:25;2.08;;;1.20;;
35795;SDS011;21916;52.428;13.302;2022-08-01T11:30:54;0.90;;;0.90;;
35795;SDS011;21916;52.428;13.302;2022-08-01T11:43:58;2.00;;;1.30;;
35795;SDS011;21916;52.428;13.302;2022-08-01T11:54:52;1.20;;;1.08;;
35795;SDS011;21916;52.428;13.302;2022-08-01T11:59:53;2.45;;;1.02;;
35795;SDS011;21916;52.428;13.302;2022-08-01T12:04:55;1.13;;;0.95;;
35795;SDS011;21916;52.428;13.302;2022-08-01T12:07:31;1.58;;;0.98;;
35795;SDS011;21916;52.428;13.302;2022-08-01T12:12:25;1.98;;;1.20;;
35795;SDS011;21916;52.428;13.302;2022-08-01T12:14:56;1.92;;;1.00;;
35795;SDS011;21916;52.428;13.302;2022-08-01T12:17:34;1.10;;;0.95;;
35795;SDS011;21916;52.428;13.302;2022-08-01T12:20:01;1.73;;;0.95;;
35795;SDS011;21916;52.428;13.302;2022-08-01T12:22:29;2.33;;;0.93;;
35795;SDS011;21916;52.428;13.302;2022-08-01T12:24:56;1.02;;;0.93;;
35795;SDS011;21916;52.428;13.302;2022-08-01T12:27:33;1.42;;;0.80;;
35795;SDS011;21916;52.428;13.302;2022-08-01T12:29:59;1.45;;;0.98;;
35795;SDS011;21916;52.428;13.302;2022-08-01T12:35:02;2.28;;;1.20;;
35795;SDS011;21916;52.428;13.302;2022-08-01T12:37:45;1.83;;;1.00;;
35795;SDS011;21916;52.428;13.302;2022-08-01T12:40:16;2.38;;;1.05;;
35795;SDS011;21916;52.428;13.302;2022-08-01T12:42:47;1.48;;;1.00;;
35795;SDS011;21916;52.428;13.302;2022-08-01T12:45:15;1.10;;;0.95;;
35795;SDS011;21916;52.428;13.302;2022-08-01T12:47:43;1.50;;;1.05;;
35795;SDS011;21916;52.428;13.302;2022-08-01T12:50:15;2.58;;;1.00;;
35795;SDS011;21916;52.428;13.302;2022-08-01T12:52:43;1.10;;;0.93;;
35795;SDS011;21916;52.428;13.302;2022-08-01T12:55:14;2.35;;;1.10;;
35795;SDS011;21916;52.428;13.302;2022-08-01T12:57:44;1.20;;;0.95;;
35795;SDS011;21916;52.428;13.302;2022-08-01T13:02:44;1.25;;;1.00;;
35795;SDS011;21916;52.428;13.302;2022-08-01T13:05:12;0.80;;;0.80;;
35795;SDS011;21916;52.428;13.302;2022-08-01T13:07:40;2.50;;;0.90;;
35795;SDS011;21916;52.428;13.302;2022-08-01T13:10:28;2.20;;;0.93;;
35795;SDS011;21916;52.428;13.302;2022-08-01T13:12:57;2.97;;;0.75;;
35795;SDS011;21916;52.428;13.302;2022-08-01T13:15:27;1.27;;;0.80;;
35795;SDS011;21916;52.428;13.302;2022-08-01T13:17:57;0.80;;;0.80;;
35795;SDS011;21916;52.428;13.302;2022-08-01T13:20:26;1.48;;;0.70;;
35795;SDS011;21916;52.428;13.302;2022-08-01T13:23:12;1.13;;;0.60;;
35795;SDS011;21916;52.428;13.302;2022-08-01T13:28:19;0.93;;;0.85;;
35795;SDS011;21916;52.428;13.302;2022-08-01T13:31:29;1.20;;;0.75;;
35795;SDS011;21916;52.428;13.302;2022-08-01T13:33:44;1.67;;;0.68;;
35795;SDS011;21916;52.428;13.302;2022-08-01T13:36:12;1.85;;;0.65;;
35795;SDS011;21916;52.428;13.302;2022-08-01T13:38:39;0.63;;;0.63;;
35795;SDS011;21916;52.428;13.302;2022-08-01T13:41:25;0.60;;;0.60;;
35795;SDS011;21916;52.428;13.302;2022-08-01T13:43:51;2.00;;;0.60;;
35795;SDS011;21916;52.428;13.302;2022-08-01T13:46:20;1.17;;;0.60;;
35795;SDS011;21916;52.428;13.302;2022-08-01T13:48:46;1.10;;;0.50;;
35795;SDS011;21916;52.428;13.302;2022-08-01T13:51:12;1.70;;;0.68;;
35795;SDS011;21916;52.428;13.302;2022-08-01T13:53:38;1.58;;;0.65;;
35795;SDS011;21916;52.428;13.302;2022-08-01T13:56:04;1.90;;;0.70;;
35795;SDS011;21916;52.428;13.302;2022-08-01T13:58:29;3.22;;;1.33;;
35795;SDS011;21916;52.428;13.302;2022-08-01T14:00:55;2.35;;;0.55;;
35795;SDS011;21916;52.428;13.302;2022-08-01T14:03:22;1.33;;;0.57;;
35795;SDS011;21916;52.428;13.302;2022-08-01T14:05:48;0.90;;;0.50;;
35795;SDS011;21916;52.428;13.302;2022-08-01T14:08:14;0.52;;;0.50;;
35795;SDS011;21916;52.428;13.302;2022-08-01T14:10:40;0.80;;;0.45;;
35795;SDS011;21916;52.428;13.302;2022-08-01T14:13:06;2.20;;;0.50;;
35795;SDS011;21916;52.428;13.302;2022-08-01T14:15:32;1.40;;;0.50;;
35795;SDS011;21916;52.428;13.302;2022-08-01T14:17:58;1.20;;;0.50;;
35795;SDS011;21916;52.428;13.302;2022-08-01T14:20:25;2.25;;;0.68;;
35795;SDS011;21916;52.428;13.302;2022-08-01T14:22:51;1.70;;;0.70;;
35795;SDS011;21916;52.428;13.302;2022-08-01T14:25:20;1.75;;;0.43;;
35795;SDS011;21916;52.428;13.302;2022-08-01T14:27:46;0.82;;;0.50;;
35795;SDS011;21916;52.428;13.302;2022-08-01T14:30:13;1.60;;;0.55;;
35795;SDS011;21916;52.428;13.302;2022-08-01T14:32:39;0.98;;;0.52;;
35795;SDS011;21916;52.428;13.302;2022-08-01T14:35:05;4.13;;;0.50;;
35795;SDS011;21916;52.428;13.302;2022-08-01T14:37:32;0.77;;;0.40;;
35795;SDS011;21916;52.428;13.302;2022-08-01T14:39:59;1.17;;;0.40;;
35795;SDS011;21916;52.428;13.302;2022-08-01T14:42:30;2.75;;;0.52;;
35795;SDS011;21916;52.428;13.302;2022-08-01T14:44:56;1.95;;;0.47;;
35795;SDS011;21916;52.428;13.302;2022-08-01T14:47:22;1.08;;;0.40;;
35795;SDS011;21916;52.428;13.302;2022-08-01T14:49:49;1.05;;;0.35;;
35795;SDS011;21916;52.428;13.302;2022-08-01T14:52:15;0.65;;;0.38;;
35795;SDS011;21916;52.428;13.302;2022-08-01T14:54:41;1.52;;;0.40;;
35795;SDS011;21916;52.428;13.302;2022-08-01T14:57:07;0.52;;;0.52;;
35795;SDS011;21916;52.428;13.302;2022-08-01T14:59:33;0.43;;;0.43;;
35795;SDS011;21916;52.428;13.302;2022-08-01T15:02:00;0.30;;;0.30;;
35795;SDS011;21916;52.428;13.302;2022-08-01T15:04:26;0.28;;;0.28;;
35795;SDS011;21916;52.428;13.302;2022-08-01T15:06:52;3.30;;;0.50;;
35795;SDS011;21916;52.428;13.302;2022-08-01T15:09:18;0.75;;;0.40;;
35795;SDS011;21916;52.428;13.302;2022-08-01T15:11:44;0.30;;;0.30;;
35795;SDS011;21916;52.428;13.302;2022-08-01T15:14:12;1.08;;;0.60;;
35795;SDS011;21916;52.428;13.302;2022-08-01T15:16:56;0.50;;;0.50;;
35795;SDS011;21916;52.428;13.302;2022-08-01T15:19:22;1.20;;;0.55;;
35795;SDS011;21916;52.428;13.302;2022-08-01T15:21:48;0.73;;;0.50;;
35795;SDS011;21916;52.428;13.302;2022-08-01T15:24:14;3.72;;;0.70;;
35795;SDS011;21916;52.428;13.302;2022-08-01T15:26:40;1.65;;;0.73;;
35795;SDS011;21916;52.428;13.302;2022-08-01T15:29:09;1.15;;;0.70;;
35795;SDS011;21916;52.428;13.302;2022-08-01T15:31:35;1.77;;;0.75;;
35795;SDS011;21916;52.428;13.302;2022-08-01T15:34:01;1.70;;;0.63;;
35795;SDS011;21916;52.428;13.302;2022-08-01T15:36:27;1.17;;;0.70;;
35795;SDS011;21916;52.428;13.302;2022-08-01T15:38:53;0.95;;;0.70;;
35795;SDS011;21916;52.428;13.302;2022-08-01T15:41:19;1.33;;;0.90;;